Portada
METAR-TAF:

METAR-TAF

Aeropuertos :

Aeropuerto Internacional de Sunan

Pionyang, Corea del Norte

latitud: 39-02N, longitud: 125-47E, altitud: 36 m

METAR: falta

Hora: 10:18 (01:18 UTC)

Pronóstico

El informe se hizo hace 4 horas y 18 minutos, a las 21:00 UTC
Pronóstico válido del 19 a las 00 UTC al 19 a las 24 UTC
Viento 6 kt del sur
Visibilidad: 6000 m

TAF: ZKPY 182100Z 1900/1924 18003MPS 6000 NSC TX09/1906Z TNM04/1922Z

Observaciones y pronósticos meteorológicos de más de 4000 aeropuertos (mensajes METAR y TAF).

Los puntos amarillos y rojos representan las estaciones disponibles.

Ponga el ratón en el punto deseado para ver el nombre de la estación.

Haga clic para ver las observaciones y los pronósticos meteorológicos.

Para cambiar el mapa : haga clic en los botones verdes con una cruz de color negro para hacer un zoom, en el botón verde con un guión para alejar o en las flechas verdes para mapas adyacentes.


METAR-TAF: